Time;durP1;ratioP1;P1;durP2;ratioP2;P2;SDS_P1;SDS_P2;PMS_P1;PMS_P2;Temp;Humidity;BMP_temperature;BMP_pressure;BME280_temperature;BME280_humidity;BME280_pressure;Samples;Min_cycle;Max_cycle;Signal;HPM_P1;HPM_P2
2024/02/13 00:02:08;;;;;;;1.45;1.30;;;19.20;58.50;;;;;;4993103;28;20022;-45
2024/02/13 00:04:33;;;;;;;1.58;1.45;;;19.20;58.50;;;;;;4989848;28;20029;-45
2024/02/13 00:06:59;;;;;;;1.70;1.60;;;19.20;58.50;;;;;;4996685;28;20468;-51
2024/02/13 00:09:24;;;;;;;1.70;1.60;;;19.10;58.50;;;;;;4994007;28;20114;-45
2024/02/13 00:11:50;;;;;;;2.00;1.90;;;19.10;58.50;;;;;;4995224;28;20038;-45
2024/02/13 00:14:16;;;;;;;2.08;1.60;;;19.10;58.40;;;;;;4994734;28;20046;-46
2024/02/13 00:16:44;;;;;;;1.48;1.38;;;19.20;58.50;;;;;;4993722;28;20054;-46
2024/02/13 00:19:11;;;;;;;2.25;1.63;;;19.20;58.50;;;;;;4992879;28;20447;-48
2024/02/13 00:21:37;;;;;;;1.95;1.75;;;19.20;58.50;;;;;;4990033;28;20033;-45
2024/02/13 00:24:02;;;;;;;2.00;1.80;;;19.10;58.40;;;;;;5003140;28;20029;-46
2024/02/13 00:26:28;;;;;;;4.63;2.03;;;19.10;58.40;;;;;;4993858;28;20054;-46
2024/02/13 00:28:54;;;;;;;1.50;1.40;;;19.20;58.40;;;;;;5001003;28;20048;-46
2024/02/13 00:31:20;;;;;;;3.00;1.88;;;19.10;58.40;;;;;;4994965;28;20116;-50
2024/02/13 00:33:48;;;;;;;2.47;1.75;;;19.20;58.40;;;;;;4993599;28;20030;-50
2024/02/13 00:36:15;;;;;;;1.80;1.65;;;19.10;58.40;;;;;;4994606;28;20037;-46
2024/02/13 00:38:43;;;;;;;1.80;1.70;;;19.10;58.30;;;;;;4993339;28;20053;-46
2024/02/13 00:41:09;;;;;;;1.52;1.42;;;19.10;58.40;;;;;;4994196;28;20511;-50
2024/02/13 00:43:35;;;;;;;2.50;1.80;;;19.10;58.30;;;;;;4991684;28;20034;-48
2024/02/13 00:46:01;;;;;;;1.65;1.55;;;19.10;58.30;;;;;;4994052;28;20042;-51
2024/02/13 00:48:27;;;;;;;1.90;1.80;;;19.10;58.30;;;;;;4991983;28;20038;-47
2024/02/13 00:50:53;;;;;;;1.60;1.50;;;19.10;58.30;;;;;;4994449;28;20045;-50
2024/02/13 00:53:18;;;;;;;1.88;1.77;;;19.10;58.30;;;;;;4992532;28;20766;-47
2024/02/13 00:55:44;;;;;;;2.08;1.63;;;19.10;58.20;;;;;;4995680;28;20033;-47
2024/02/13 00:58:10;;;;;;;2.28;1.60;;;19.10;58.30;;;;;;4991846;28;20045;-45
2024/02/13 01:00:36;;;;;;;1.48;1.38;;;19.10;58.30;;;;;;4991418;28;20030;-52
2024/02/13 01:03:01;;;;;;;2.17;1.83;;;19.10;58.20;;;;;;4992054;28;20022;-48
2024/02/13 01:05:30;;;;;;;1.52;1.42;;;19.10;58.30;;;;;;4997562;28;20026;-49
2024/02/13 01:07:56;;;;;;;2.97;1.77;;;19.10;58.30;;;;;;4990420;28;20056;-54
2024/02/13 01:10:22;;;;;;;1.52;1.40;;;19.10;58.30;;;;;;4994578;28;20049;-45
2024/02/13 01:12:47;;;;;;;1.90;1.70;;;19.00;58.30;;;;;;4995698;28;20049;-47
2024/02/13 01:15:14;;;;;;;2.28;1.77;;;19.00;58.30;;;;;;4994781;28;20068;-50
2024/02/13 01:17:40;;;;;;;2.15;1.80;;;19.00;58.30;;;;;;4998418;28;20037;-49
2024/02/13 01:20:10;;;;;;;1.42;1.33;;;19.00;58.40;;;;;;4992599;28;20584;-46
2024/02/13 01:22:35;;;;;;;2.20;1.88;;;19.00;58.40;;;;;;4992163;28;20030;-49
2024/02/13 01:25:02;;;;;;;1.92;1.67;;;19.00;58.40;;;;;;4996360;28;20022;-48
2024/02/13 01:27:27;;;;;;;1.67;1.58;;;19.00;58.30;;;;;;4980329;28;20507;-48
2024/02/13 01:29:54;;;;;;;2.10;1.90;;;19.00;58.40;;;;;;5010319;28;20038;-47
2024/02/13 01:32:19;;;;;;;1.48;1.38;;;18.90;58.40;;;;;;5015527;23;20022;-66
2024/02/13 01:34:45;;;;;;;2.75;2.08;;;18.90;58.40;;;;;;5004712;28;20034;-67
2024/02/13 01:37:11;;;;;;;2.22;1.70;;;19.00;58.50;;;;;;5014279;28;20397;-66
2024/02/13 01:39:37;;;;;;;2.33;1.50;;;18.90;58.50;;;;;;5008965;28;20504;-67
2024/02/13 01:42:02;;;;;;;2.42;1.65;;;18.90;58.40;;;;;;5014928;28;20034;-67
2024/02/13 01:44:28;;;;;;;2.28;1.98;;;18.90;58.40;;;;;;5011762;28;20029;-67
2024/02/13 01:46:54;;;;;;;1.55;1.45;;;18.90;58.40;;;;;;5014579;28;20105;-66
2024/02/13 01:49:21;;;;;;;2.08;1.88;;;18.90;58.40;;;;;;5012427;28;20165;-66
2024/02/13 01:51:48;;;;;;;2.75;1.85;;;18.90;58.40;;;;;;5007741;28;20037;-67
2024/02/13 01:54:14;;;;;;;1.30;1.20;;;18.90;58.40;;;;;;5008755;28;20119;-67
2024/02/13 01:56:41;;;;;;;2.55;1.20;;;18.90;58.40;;;;;;5012716;28;20497;-67
2024/02/13 01:59:08;;;;;;;1.73;1.50;;;18.90;58.40;;;;;;5002045;28;20030;-67
2024/02/13 02:01:35;;;;;;;1.83;1.60;;;19.00;58.40;;;;;;5003617;28;20025;-66
2024/02/13 02:04:03;;;;;;;1.60;1.38;;;19.00;58.40;;;;;;5010825;28;20079;-67
2024/02/13 02:06:29;;;;;;;2.63;1.65;;;19.00;58.40;;;;;;5015492;28;20030;-66
2024/02/13 02:08:56;;;;;;;2.25;1.58;;;19.00;58.30;;;;;;5011755;28;20030;-68
2024/02/13 02:11:23;;;;;;;2.08;1.75;;;19.10;58.20;;;;;;5017212;28;20041;-66
2024/02/13 02:13:49;;;;;;;1.40;1.30;;;19.10;58.10;;;;;;5008312;28;20134;-64
2024/02/13 02:16:15;;;;;;;2.10;1.70;;;19.10;58.10;;;;;;5014100;28;20400;-66
2024/02/13 02:18:40;;;;;;;1.63;1.50;;;19.10;58.00;;;;;;5007787;28;20029;-67
2024/02/13 02:21:07;;;;;;;1.60;1.50;;;19.10;58.00;;;;;;5014932;28;20026;-67
2024/02/13 02:23:34;;;;;;;1.98;1.70;;;19.20;57.90;;;;;;5011960;28;20029;-68
2024/02/13 02:26:01;;;;;;;1.95;1.65;;;19.20;57.80;;;;;;5015931;28;20072;-67
2024/02/13 02:28:27;;;;;;;2.15;1.80;;;19.20;57.80;;;;;;5007333;28;20057;-67
2024/02/13 02:30:52;;;;;;;1.48;1.38;;;19.20;57.60;;;;;;5014029;28;20081;-65
2024/02/13 02:33:17;;;;;;;1.30;1.20;;;19.20;57.60;;;;;;5007999;28;21402;-67
2024/02/13 02:35:43;;;;;;;1.52;1.42;;;19.30;57.50;;;;;;5015127;28;20030;-67
2024/02/13 02:38:13;;;;;;;2.47;1.58;;;19.30;57.50;;;;;;5007394;28;20417;-67
2024/02/13 02:40:39;;;;;;;1.70;1.60;;;19.30;57.50;;;;;;5006071;28;20067;-64
2024/02/13 02:43:05;;;;;;;2.22;1.65;;;19.30;57.50;;;;;;5005460;28;20121;-67
2024/02/13 02:45:30;;;;;;;1.80;1.48;;;19.30;57.40;;;;;;5008017;28;20501;-67
2024/02/13 02:47:56;;;;;;;2.35;1.05;;;19.30;57.40;;;;;;5004106;28;20117;-67
2024/02/13 02:50:22;;;;;;;1.50;1.40;;;19.40;57.40;;;;;;5006181;28;20255;-67
2024/02/13 02:52:48;;;;;;;2.05;1.40;;;19.30;57.30;;;;;;5002245;28;20081;-67
2024/02/13 02:55:17;;;;;;;1.20;1.10;;;19.30;57.30;;;;;;5005025;28;20040;-66
2024/02/13 02:57:42;;;;;;;2.20;1.10;;;19.40;57.30;;;;;;5005650;28;20037;-67
2024/02/13 03:00:10;;;;;;;1.40;1.30;;;19.40;57.30;;;;;;5005007;28;20655;-67
2024/02/13 03:02:38;;;;;;;2.38;1.10;;;19.40;57.30;;;;;;5003304;28;20049;-67
2024/02/13 03:05:05;;;;;;;1.40;1.30;;;19.40;57.30;;;;;;5003661;28;20030;-67
2024/02/13 03:07:31;;;;;;;2.33;1.13;;;19.40;57.30;;;;;;5004342;28;20512;-67
2024/02/13 03:09:58;;;;;;;1.88;1.40;;;19.40;57.30;;;;;;5008490;28;20578;-67
2024/02/13 03:12:24;;;;;;;2.38;1.52;;;19.40;57.30;;;;;;5005671;28;20103;-67
2024/02/13 03:14:50;;;;;;;2.45;1.55;;;19.40;57.30;;;;;;5015666;28;20052;-68
2024/02/13 03:17:17;;;;;;;1.55;1.45;;;19.40;57.30;;;;;;5003963;28;20034;-68
2024/02/13 03:19:43;;;;;;;1.80;1.20;;;19.40;57.30;;;;;;5004854;28;20044;-67
2024/02/13 03:22:08;;;;;;;1.30;1.17;;;19.40;57.30;;;;;;5007887;28;20034;-68
2024/02/13 03:24:33;;;;;;;1.58;1.33;;;19.40;57.30;;;;;;5011394;28;20053;-67
2024/02/13 03:27:00;;;;;;;2.30;1.30;;;19.40;57.40;;;;;;5006537;28;20052;-68
2024/02/13 03:29:27;;;;;;;1.00;0.90;;;19.30;57.30;;;;;;5013448;28;20032;-67
2024/02/13 03:31:52;;;;;;;1.50;1.20;;;19.30;57.40;;;;;;5008232;28;20052;-68
2024/02/13 03:34:18;;;;;;;2.08;1.13;;;19.30;57.40;;;;;;5006683;28;20053;-67
2024/02/13 03:36:43;;;;;;;2.17;1.00;;;19.30;57.50;;;;;;5001782;28;20766;-67
2024/02/13 03:39:09;;;;;;;1.35;1.25;;;19.20;57.40;;;;;;5007295;28;20038;-67
2024/02/13 03:41:47;;;;;;;2.13;1.27;;;19.30;57.50;;;;;;5005454;28;20400;-68
2024/02/13 03:44:13;;;;;;;0.85;0.80;;;19.20;57.50;;;;;;5003117;28;20037;-68
2024/02/13 03:46:39;;;;;;;1.20;1.00;;;19.20;57.40;;;;;;5003541;28;20424;-68
2024/02/13 03:49:08;;;;;;;2.58;1.20;;;19.20;57.60;;;;;;5000275;28;20038;-67
2024/02/13 03:51:40;;;;;;;2.63;1.52;;;19.20;57.60;;;;;;5012292;28;20041;-67
2024/02/13 03:54:07;;;;;;;2.65;1.10;;;19.20;57.60;;;;;;5009165;28;20034;-68
2024/02/13 03:56:33;;;;;;;1.55;0.90;;;19.20;57.60;;;;;;5010133;28;20025;-67
2024/02/13 03:58:59;;;;;;;3.70;1.30;;;19.20;57.80;;;;;;5006504;28;20049;-67
2024/02/13 04:01:24;;;;;;;1.58;1.20;;;19.10;57.70;;;;;;4997338;28;20543;-64
2024/02/13 04:03:50;;;;;;;2.72;1.55;;;19.20;57.60;;;;;;4999262;28;20060;-67
2024/02/13 04:06:15;;;;;;;3.22;1.25;;;19.10;57.70;;;;;;5007033;28;20181;-67
2024/02/13 04:08:44;;;;;;;1.63;1.20;;;19.10;57.70;;;;;;5006337;28;20037;-66
2024/02/13 04:11:10;;;;;;;1.52;1.30;;;19.10;57.70;;;;;;5004384;28;20034;-65
2024/02/13 04:13:36;;;;;;;1.42;1.08;;;19.10;57.70;;;;;;5012846;28;20040;-67
2024/02/13 04:16:01;;;;;;;1.63;1.23;;;19.10;57.60;;;;;;5012358;28;20033;-67
2024/02/13 04:18:26;;;;;;;2.20;1.45;;;19.10;57.60;;;;;;5006800;28;20044;-66
2024/02/13 04:20:52;;;;;;;2.58;1.20;;;19.10;57.70;;;;;;5009299;28;20041;-67
2024/02/13 04:23:17;;;;;;;3.80;1.30;;;19.10;57.70;;;;;;5011388;28;20057;-66
2024/02/13 04:25:43;;;;;;;1.73;1.40;;;19.10;57.70;;;;;;5013675;28;20427;-67
2024/02/13 04:28:08;;;;;;;3.33;1.05;;;19.10;57.70;;;;;;5002215;28;20042;-67
2024/02/13 04:30:40;;;;;;;3.05;1.23;;;19.10;57.70;;;;;;5013793;28;20041;-67
2024/02/13 04:33:09;;;;;;;1.50;1.00;;;19.10;57.60;;;;;;5003887;28;20486;-68
2024/02/13 04:35:35;;;;;;;3.03;1.33;;;19.10;57.70;;;;;;5014811;28;20029;-68
2024/02/13 04:38:02;;;;;;;1.25;1.10;;;19.10;57.70;;;;;;5009028;28;20034;-67
2024/02/13 04:40:27;;;;;;;1.40;1.25;;;19.10;57.60;;;;;;5009808;28;20083;-66
2024/02/13 04:42:53;;;;;;;3.15;1.17;;;19.10;57.60;;;;;;5004713;28;20034;-67
2024/02/13 04:45:18;;;;;;;1.65;0.98;;;19.10;57.70;;;;;;5010583;28;21325;-67
2024/02/13 04:47:46;;;;;;;2.15;1.20;;;19.10;57.60;;;;;;5007616;28;20037;-67
2024/02/13 04:50:13;;;;;;;1.70;1.10;;;19.10;57.60;;;;;;5022982;28;20037;-66
2024/02/13 04:52:38;;;;;;;2.28;0.98;;;19.10;57.60;;;;;;5008358;28;20038;-67
2024/02/13 04:55:04;;;;;;;1.20;1.10;;;19.00;57.50;;;;;;5010725;28;20026;-67
2024/02/13 04:57:30;;;;;;;1.15;1.05;;;19.10;57.60;;;;;;5007502;28;20041;-67
2024/02/13 04:59:57;;;;;;;1.42;1.20;;;19.10;57.50;;;;;;5010819;28;20129;-67
2024/02/13 05:02:24;;;;;;;1.92;0.98;;;19.10;57.60;;;;;;4998449;28;20022;-67
2024/02/13 05:07:35;;;;;;;1.52;1.10;;;19.10;57.50;;;;;;5006121;28;20220;-67
2024/02/13 05:10:02;;;;;;;1.20;1.10;;;19.10;57.60;;;;;;5012297;28;20618;-67
2024/02/13 05:12:28;;;;;;;1.60;1.13;;;19.10;57.50;;;;;;5004150;28;20030;-66
2024/02/13 05:14:54;;;;;;;2.30;0.90;;;19.10;57.60;;;;;;5014409;28;20084;-67
2024/02/13 05:17:21;;;;;;;1.25;1.00;;;19.10;57.60;;;;;;5004158;28;20504;-67
2024/02/13 05:19:49;;;;;;;2.28;0.93;;;19.10;57.60;;;;;;5010226;28;20211;-66
2024/02/13 05:22:15;;;;;;;2.17;1.25;;;19.00;57.50;;;;;;5012353;28;20040;-67
2024/02/13 05:24:40;;;;;;;1.45;0.80;;;19.10;57.50;;;;;;5014480;28;20033;-67
2024/02/13 05:27:09;;;;;;;1.45;1.00;;;19.00;57.50;;;;;;5009779;28;20026;-68
2024/02/13 05:29:36;;;;;;;0.93;0.85;;;19.00;57.50;;;;;;5004594;28;20034;-67
2024/02/13 05:32:05;;;;;;;1.30;0.80;;;19.00;57.60;;;;;;5009598;28;20049;-67
2024/02/13 05:34:30;;;;;;;1.85;1.10;;;19.00;57.50;;;;;;5010882;28;20089;-66
2024/02/13 05:36:59;;;;;;;2.83;1.00;;;19.10;57.60;;;;;;5007403;28;20026;-65
2024/02/13 05:39:25;;;;;;;1.05;0.95;;;19.10;57.50;;;;;;5011184;28;20046;-67
2024/02/13 05:41:51;;;;;;;1.98;1.10;;;19.10;57.50;;;;;;5009265;28;20522;-67
2024/02/13 05:44:16;;;;;;;1.73;1.00;;;19.00;57.40;;;;;;5009731;28;20058;-66
2024/02/13 05:46:42;;;;;;;2.88;0.93;;;19.00;57.40;;;;;;5006966;28;20124;-66
2024/02/13 05:49:08;;;;;;;1.77;0.82;;;19.10;57.60;;;;;;5009107;28;20117;-68
2024/02/13 05:51:34;;;;;;;1.92;1.17;;;19.10;57.40;;;;;;5006111;28;20045;-67
2024/02/13 05:54:04;;;;;;;1.23;0.77;;;19.00;57.30;;;;;;4998431;28;20263;-68
2024/02/13 05:56:30;;;;;;;1.40;0.85;;;19.10;57.40;;;;;;5006389;28;20037;-68
2024/02/13 05:58:57;;;;;;;1.05;0.82;;;19.00;57.50;;;;;;5008361;28;20125;-68
2024/02/13 06:01:23;;;;;;;1.52;0.90;;;19.00;57.40;;;;;;5007874;28;20057;-68
2024/02/13 06:03:50;;;;;;;1.23;0.70;;;19.00;57.60;;;;;;5004117;28;20065;-68
2024/02/13 06:06:15;;;;;;;2.28;1.00;;;19.00;57.50;;;;;;5006424;28;20429;-68
2024/02/13 06:08:41;;;;;;;0.85;0.68;;;19.00;57.50;;;;;;5011840;28;20069;-68
2024/02/13 06:11:06;;;;;;;2.13;0.90;;;19.00;57.50;;;;;;5007301;28;20034;-68
2024/02/13 06:13:33;;;;;;;1.10;0.70;;;19.00;57.50;;;;;;5011605;28;20046;-68
2024/02/13 06:15:59;;;;;;;2.15;1.00;;;19.00;57.60;;;;;;5008007;28;20154;-68
2024/02/13 06:18:24;;;;;;;1.02;0.57;;;18.90;57.60;;;;;;5005424;28;20565;-70
2024/02/13 06:20:50;;;;;;;0.93;0.85;;;18.90;57.60;;;;;;5003230;28;20041;-69
2024/02/13 06:23:15;;;;;;;1.20;0.90;;;18.90;57.50;;;;;;5005718;28;20792;-69
2024/02/13 06:25:41;;;;;;;2.60;0.65;;;18.90;57.60;;;;;;5004690;28;20042;-68
2024/02/13 06:28:07;;;;;;;2.40;0.90;;;18.80;58.30;;;;;;5000060;28;20132;-69
2024/02/13 06:30:33;;;;;;;1.65;1.17;;;18.80;57.90;;;;;;5000412;28;20137;-68
2024/02/13 06:33:00;;;;;;;2.95;1.17;;;18.80;58.00;;;;;;4998925;28;20098;-68
2024/02/13 06:35:25;;;;;;;3.45;1.20;;;18.80;58.10;;;;;;5005276;28;20033;-68
2024/02/13 06:37:52;;;;;;;6.10;1.40;;;18.80;58.40;;;;;;4986668;28;20729;-69
2024/02/13 06:40:18;;;;;;;3.60;1.27;;;18.80;58.30;;;;;;5005016;28;20110;-69
2024/02/13 06:42:43;;;;;;;4.55;1.10;;;18.70;58.40;;;;;;5006614;28;20493;-69
2024/02/13 06:45:10;;;;;;;4.43;0.98;;;18.70;58.60;;;;;;5008864;28;20030;-69
2024/02/13 06:47:36;;;;;;;4.93;1.48;;;18.60;58.60;;;;;;5009729;28;20077;-69
2024/02/13 06:50:03;;;;;;;5.93;1.10;;;18.60;58.70;;;;;;5011400;28;20164;-69
2024/02/13 06:52:29;;;;;;;4.25;1.45;;;18.60;58.80;;;;;;5004210;28;20030;-67
2024/02/13 06:54:55;;;;;;;3.97;1.08;;;18.60;58.80;;;;;;5010116;28;20030;-69
2024/02/13 06:57:20;;;;;;;5.10;1.50;;;18.50;58.80;;;;;;5002090;28;20039;-69
2024/02/13 06:59:46;;;;;;;2.67;1.20;;;18.60;58.90;;;;;;5004675;28;20425;-69
2024/02/13 07:02:12;;;;;;;3.90;0.90;;;18.50;58.90;;;;;;5004831;28;20030;-68
2024/02/13 07:04:37;;;;;;;4.07;1.20;;;18.50;58.90;;;;;;5008167;28;20527;-67
2024/02/13 07:07:05;;;;;;;5.95;1.10;;;18.50;58.90;;;;;;5005263;28;20034;-68
2024/02/13 07:09:32;;;;;;;4.28;1.25;;;18.40;58.80;;;;;;5006346;28;20022;-68
2024/02/13 07:11:58;;;;;;;5.22;1.10;;;18.40;58.90;;;;;;4998083;28;20040;-67
2024/02/13 07:14:23;;;;;;;3.35;1.05;;;18.40;58.90;;;;;;5007733;28;20026;-68
2024/02/13 07:16:49;;;;;;;4.32;1.55;;;18.40;58.90;;;;;;5008222;28;20133;-68
2024/02/13 07:19:14;;;;;;;3.33;1.30;;;18.40;58.80;;;;;;5006433;28;20036;-68
2024/02/13 07:21:40;;;;;;;5.40;1.67;;;18.50;58.90;;;;;;5009529;28;20145;-68
2024/02/13 07:24:06;;;;;;;4.28;1.98;;;18.60;58.70;;;;;;5008050;28;20377;-68
2024/02/13 07:26:31;;;;;;;6.93;2.25;;;18.60;58.40;;;;;;5004657;28;20456;-67
2024/02/13 07:28:56;;;;;;;5.60;2.45;;;18.70;58.10;;;;;;5008643;28;20027;-68
2024/02/13 07:31:23;;;;;;;6.47;2.38;;;18.80;58.00;;;;;;5003074;28;20034;-68
2024/02/13 07:33:48;;;;;;;11.38;2.92;;;18.90;58.00;;;;;;5004605;28;20030;-67
2024/02/13 07:36:14;;;;;;;8.93;2.33;;;19.00;57.80;;;;;;5005503;28;20044;-68
2024/02/13 07:38:40;;;;;;;11.32;2.40;;;19.20;57.60;;;;;;5009238;28;20488;-67
2024/02/13 07:41:08;;;;;;;5.97;2.28;;;19.20;57.10;;;;;;5006136;28;20037;-68
2024/02/13 07:43:34;;;;;;;6.88;2.67;;;19.30;57.00;;;;;;5008528;28;20440;-67
2024/02/13 07:45:59;;;;;;;9.25;2.45;;;19.40;56.80;;;;;;5008279;28;20037;-67
2024/02/13 07:48:25;;;;;;;6.88;2.70;;;19.50;56.70;;;;;;5007561;28;20096;-68
2024/02/13 07:50:53;;;;;;;10.15;3.42;;;19.50;57.10;;;;;;5006295;28;20034;-69
2024/02/13 07:53:20;;;;;;;11.50;3.80;;;19.60;56.50;;;;;;5001982;28;20045;-67
2024/02/13 07:55:46;;;;;;;11.82;4.18;;;19.60;56.40;;;;;;5006200;28;20045;-67
2024/02/13 07:58:12;;;;;;;13.10;5.40;;;19.70;56.30;;;;;;5008309;28;20026;-67
2024/02/13 08:00:38;;;;;;;16.08;6.28;;;19.70;56.40;;;;;;5002397;28;20026;-67
2024/02/13 08:03:03;;;;;;;17.77;6.20;;;19.70;56.50;;;;;;5011360;28;20263;-67
2024/02/13 08:05:33;;;;;;;14.95;6.57;;;19.70;56.40;;;;;;5004535;28;20044;-67
2024/02/13 08:08:02;;;;;;;14.15;5.50;;;19.70;56.50;;;;;;5006934;28;20642;-66
2024/02/13 08:10:29;;;;;;;15.35;6.18;;;19.70;56.60;;;;;;5011154;28;20033;-68
2024/02/13 08:12:56;;;;;;;14.70;6.20;;;19.70;56.60;;;;;;5009194;28;20032;-66
2024/02/13 08:15:22;;;;;;;17.50;6.65;;;19.70;56.60;;;;;;5009686;28;20033;-66
2024/02/13 08:17:47;;;;;;;16.73;5.68;;;19.70;56.80;;;;;;5004607;28;20076;-66
2024/02/13 08:20:13;;;;;;;14.60;5.88;;;19.60;56.80;;;;;;5006929;28;20030;-66
2024/02/13 08:22:39;;;;;;;12.65;5.70;;;19.60;56.90;;;;;;5004753;28;20063;-67
2024/02/13 08:25:07;;;;;;;16.88;5.93;;;19.60;57.00;;;;;;5006541;28;20025;-67
2024/02/13 08:27:35;;;;;;;12.85;5.53;;;19.60;57.10;;;;;;5005558;28;20061;-66
2024/02/13 08:30:01;;;;;;;13.57;5.22;;;19.50;57.10;;;;;;4994091;28;20109;-67
2024/02/13 08:32:27;;;;;;;9.52;4.90;;;19.50;57.20;;;;;;5004481;28;20108;-67
2024/02/13 08:34:52;;;;;;;11.27;6.00;;;19.40;57.20;;;;;;5007393;28;20125;-67
2024/02/13 08:37:18;;;;;;;12.60;4.93;;;19.40;57.30;;;;;;5007889;28;20030;-67
2024/02/13 08:39:43;;;;;;;13.85;5.25;;;19.30;57.30;;;;;;5007274;28;20032;-67
2024/02/13 08:42:09;;;;;;;10.45;5.18;;;19.30;57.40;;;;;;5007960;28;20030;-67
2024/02/13 08:44:34;;;;;;;12.30;5.20;;;19.30;57.50;;;;;;5006979;28;20029;-67
2024/02/13 08:47:00;;;;;;;12.15;5.47;;;19.30;57.60;;;;;;5008620;28;20535;-67
2024/02/13 08:49:26;;;;;;;12.30;4.70;;;19.20;57.60;;;;;;5008993;28;20040;-68
2024/02/13 08:51:51;;;;;;;13.35;4.85;;;19.20;57.70;;;;;;5009029;28;20062;-68
2024/02/13 08:54:17;;;;;;;9.32;4.20;;;19.20;57.70;;;;;;5006313;28;20025;-67
2024/02/13 08:56:42;;;;;;;13.77;5.15;;;19.20;57.80;;;;;;5004434;28;20523;-68
2024/02/13 08:59:08;;;;;;;10.20;4.85;;;19.10;57.70;;;;;;5003969;28;20030;-67
2024/02/13 09:01:34;;;;;;;12.60;4.25;;;19.10;57.80;;;;;;5001188;28;20041;-66
2024/02/13 09:04:01;;;;;;;10.13;4.88;;;19.10;57.80;;;;;;4997450;28;20030;-66
2024/02/13 09:06:26;;;;;;;11.73;4.25;;;19.00;57.90;;;;;;4995637;28;20038;-68
2024/02/13 09:08:52;;;;;;;12.35;4.28;;;19.00;57.90;;;;;;5000104;28;20590;-65
2024/02/13 09:11:18;;;;;;;13.00;4.40;;;19.00;58.10;;;;;;4997709;28;20053;-65
2024/02/13 09:13:45;;;;;;;9.88;4.70;;;19.00;58.10;;;;;;4999211;28;20029;-67
2024/02/13 09:16:10;;;;;;;11.68;4.38;;;19.00;58.10;;;;;;4987139;28;20026;-67
2024/02/13 09:18:36;;;;;;;12.60;5.38;;;19.00;58.10;;;;;;5005258;28;20523;-67
2024/02/13 09:21:03;;;;;;;8.93;4.10;;;19.00;58.10;;;;;;4996932;28;20045;-67
2024/02/13 09:23:30;;;;;;;12.40;3.90;;;18.90;58.10;;;;;;4996127;28;20040;-67
2024/02/13 09:25:56;;;;;;;9.07;3.70;;;18.90;58.10;;;;;;4998293;28;20529;-65
2024/02/13 09:28:22;;;;;;;9.38;3.90;;;18.90;58.10;;;;;;4997210;28;20053;-67
2024/02/13 09:30:50;;;;;;;6.78;4.45;;;18.90;58.20;;;;;;4996769;28;20267;-67
2024/02/13 09:33:17;;;;;;;7.95;3.63;;;18.90;58.20;;;;;;4995966;28;20050;-67
2024/02/13 09:35:44;;;;;;;8.30;3.28;;;18.90;58.20;;;;;;4999454;28;20041;-68
2024/02/13 09:38:09;;;;;;;9.88;3.92;;;18.90;58.30;;;;;;4997613;28;20045;-67
2024/02/13 09:40:35;;;;;;;9.57;4.47;;;18.90;58.30;;;;;;4995268;28;21472;-67
2024/02/13 09:43:01;;;;;;;9.90;4.10;;;18.90;58.30;;;;;;5006264;28;20104;-67
2024/02/13 09:45:27;;;;;;;7.30;3.63;;;18.90;58.30;;;;;;5006586;28;21159;-67
2024/02/13 09:47:55;;;;;;;4.85;2.88;;;18.90;58.30;;;;;;5007346;28;20087;-68
2024/02/13 09:50:21;;;;;;;6.53;3.13;;;18.90;58.30;;;;;;5007803;28;20029;-67
2024/02/13 09:52:54;;;;;;;8.65;3.53;;;18.90;58.40;;;;;;5006373;28;20045;-67
2024/02/13 09:55:20;;;;;;;8.10;3.47;;;18.80;58.30;;;;;;5002697;28;20033;-67
2024/02/13 09:57:47;;;;;;;6.50;3.28;;;18.90;58.50;;;;;;5007032;28;20107;-68
2024/02/13 10:00:18;;;;;;;7.03;3.42;;;18.90;58.40;;;;;;5010833;28;20022;-67
2024/02/13 10:02:44;;;;;;;6.72;3.53;;;18.80;58.40;;;;;;5009060;28;20165;-68
2024/02/13 10:05:10;;;;;;;6.45;3.53;;;18.90;58.50;;;;;;5013281;28;20109;-67
2024/02/13 10:07:41;;;;;;;8.20;3.28;;;18.90;58.50;;;;;;5009757;28;20041;-67
2024/02/13 10:10:10;;;;;;;8.27;3.92;;;18.90;58.50;;;;;;5007783;28;20048;-67
2024/02/13 10:12:48;;;;;;;5.88;2.90;;;18.90;58.50;;;;;;5010863;28;20037;-67
2024/02/13 10:15:14;;;;;;;5.35;2.65;;;19.00;58.30;;;;;;5007017;28;20076;-67
2024/02/13 10:17:40;;;;;;;5.50;2.92;;;19.00;58.10;;;;;;5012963;28;20515;-67
2024/02/13 10:20:09;;;;;;;5.32;2.65;;;19.10;58.10;;;;;;5010163;28;20405;-67
2024/02/13 10:22:42;;;;;;;6.28;2.83;;;19.20;58.00;;;;;;5010338;28;20033;-62
2024/02/13 10:25:10;;;;;;;4.95;3.00;;;19.20;57.90;;;;;;5001604;28;20037;-67
2024/02/13 10:27:36;;;;;;;7.35;3.25;;;19.20;57.70;;;;;;5018841;28;20033;-66
2024/02/13 10:30:02;;;;;;;4.43;2.40;;;19.30;57.60;;;;;;5007833;28;20053;-66
2024/02/13 10:32:28;;;;;;;6.80;2.97;;;19.30;57.50;;;;;;5010986;28;20517;-66
2024/02/13 10:34:53;;;;;;;5.40;2.33;;;19.30;57.40;;;;;;5009745;28;20071;-66
2024/02/13 10:37:21;;;;;;;5.32;2.70;;;19.30;57.30;;;;;;5013960;28;20393;-66
2024/02/13 10:39:51;;;;;;;5.97;2.42;;;19.30;57.20;;;;;;5007336;28;20634;-67
2024/02/13 10:42:20;;;;;;;4.40;2.38;;;19.40;57.20;;;;;;5012130;28;20409;-65
2024/02/13 10:44:50;;;;;;;4.38;2.80;;;19.40;57.20;;;;;;5005670;28;20126;-66
2024/02/13 10:47:20;;;;;;;5.05;1.92;;;19.40;57.10;;;;;;5013652;28;20424;-66
2024/02/13 10:49:58;;;;;;;4.53;2.42;;;19.50;57.10;;;;;;5007893;28;20044;-66
2024/02/13 10:52:25;;;;;;;4.85;2.33;;;19.50;57.00;;;;;;5006176;28;20103;-66
2024/02/13 10:54:52;;;;;;;4.43;2.20;;;19.60;56.90;;;;;;5004785;28;20053;-66
2024/02/13 10:57:17;;;;;;;3.78;2.40;;;19.60;56.80;;;;;;5002020;28;20025;-66
2024/02/13 10:59:44;;;;;;;4.80;2.33;;;19.60;56.80;;;;;;5003056;28;20039;-66
2024/02/13 11:02:13;;;;;;;2.83;1.92;;;19.60;56.70;;;;;;5010473;28;20034;-66
2024/02/13 11:04:43;;;;;;;4.75;2.17;;;19.60;56.70;;;;;;5006072;28;20335;-66
2024/02/13 11:07:15;;;;;;;4.53;2.15;;;19.60;56.70;;;;;;5010575;28;20029;-66
2024/02/13 11:09:41;;;;;;;3.70;1.98;;;19.60;56.70;;;;;;5007399;28;20512;-66
2024/02/13 11:12:08;;;;;;;4.70;2.22;;;19.60;56.60;;;;;;5010010;28;20068;-66
2024/02/13 11:14:34;;;;;;;4.68;2.00;;;19.60;56.60;;;;;;5012057;28;20116;-66
2024/02/13 11:17:03;;;;;;;4.40;1.85;;;19.60;56.70;;;;;;5007993;28;20519;-66
2024/02/13 11:19:42;;;;;;;3.45;1.88;;;19.70;56.70;;;;;;5011408;28;20519;-67
2024/02/13 11:22:08;;;;;;;4.80;2.10;;;19.70;56.70;;;;;;5008031;28;20433;-66
2024/02/13 11:24:42;;;;;;;6.80;2.47;;;19.60;56.70;;;;;;5013430;28;20056;-66
2024/02/13 11:27:13;;;;;;;4.57;1.88;;;19.60;56.70;;;;;;4986261;28;20022;-66
2024/02/13 11:29:39;;;;;;;3.38;2.00;;;19.60;56.70;;;;;;5007768;28;20110;-66
2024/02/13 11:32:04;;;;;;;3.47;1.80;;;19.60;56.80;;;;;;5008752;28;20064;-67
2024/02/13 11:34:41;;;;;;;3.80;1.75;;;19.60;56.80;;;;;;5007198;28;20045;-66
2024/02/13 11:37:20;;;;;;;3.33;1.80;;;19.60;57.50;;;;;;5008981;28;20070;-66
2024/02/13 11:39:48;;;;;;;3.22;1.75;;;19.50;56.80;;;;;;5007029;28;20046;-67
2024/02/13 11:42:19;;;;;;;3.63;2.00;;;19.60;57.00;;;;;;5009184;28;20026;-67
2024/02/13 11:44:50;;;;;;;3.63;2.10;;;19.50;57.00;;;;;;5007575;28;20107;-66
2024/02/13 11:47:25;;;;;;;3.95;1.95;;;19.50;57.00;;;;;;5007582;28;20428;-66
2024/02/13 11:49:51;;;;;;;3.05;1.52;;;19.50;57.10;;;;;;5007590;28;20061;-66
2024/02/13 11:52:20;;;;;;;3.97;2.22;;;19.50;57.10;;;;;;5010508;28;20556;-66
2024/02/13 11:54:48;;;;;;;2.67;1.45;;;19.50;57.20;;;;;;5010834;28;20038;-66
2024/02/13 11:57:18;;;;;;;4.78;1.85;;;19.50;57.20;;;;;;5006865;28;20030;-68
2024/02/13 11:59:57;;;;;;;2.90;1.90;;;19.50;57.20;;;;;;5011310;28;20022;-66
2024/02/13 12:02:23;;;;;;;3.45;1.83;;;19.50;57.30;;;;;;5007796;28;20034;-65
2024/02/13 12:04:48;;;;;;;4.10;1.92;;;19.60;57.50;;;;;;5010375;28;20096;-66
2024/02/13 12:07:16;;;;;;;2.63;1.60;;;19.50;57.50;;;;;;5007485;28;20418;-63
2024/02/13 12:09:42;;;;;;;2.63;1.50;;;19.50;57.70;;;;;;5009217;28;20518;-66
2024/02/13 12:12:09;;;;;;;3.95;1.52;;;19.50;57.80;;;;;;5009547;28;20088;-66
2024/02/13 12:14:36;;;;;;;3.03;1.75;;;19.50;57.80;;;;;;5013297;28;20119;-65
2024/02/13 12:17:07;;;;;;;2.30;1.50;;;19.50;58.00;;;;;;4985263;28;20546;-66
2024/02/13 12:19:52;;;;;;;3.38;1.77;;;19.50;58.10;;;;;;5011800;28;20030;-66
2024/02/13 12:22:18;;;;;;;5.20;1.60;;;19.50;58.20;;;;;;5006121;28;20401;-66
2024/02/13 12:24:45;;;;;;;2.97;1.70;;;19.50;58.10;;;;;;5011864;28;20097;-66
2024/02/13 12:27:12;;;;;;;5.70;1.75;;;19.60;58.30;;;;;;5007360;28;20070;-62
2024/02/13 12:29:41;;;;;;;3.90;1.33;;;19.60;58.40;;;;;;5012787;28;20033;-64
2024/02/13 12:32:16;;;;;;;2.65;1.20;;;19.60;58.30;;;;;;5009033;28;20034;-66
2024/02/13 12:34:47;;;;;;;1.52;1.10;;;19.60;58.40;;;;;;5012400;28;20045;-66
2024/02/13 12:37:16;;;;;;;2.00;1.30;;;19.60;58.30;;;;;;5005464;28;20022;-67
2024/02/13 12:39:43;;;;;;;2.47;1.27;;;19.60;58.40;;;;;;5012004;28;20034;-69
2024/02/13 12:42:12;;;;;;;4.22;1.48;;;19.60;58.40;;;;;;5009576;28;20034;-66
2024/02/13 12:44:42;;;;;;;4.20;1.17;;;19.60;58.60;;;;;;5012175;28;20538;-64
2024/02/13 12:47:12;;;;;;;8.02;1.42;;;19.60;58.50;;;;;;5010260;28;20076;-66